Wednesday, April 25, 2018, 1:05 AM EDT
Back to Local

KELM, Elmira County Airport

Location: Horseheads, NY, United States Lat: 42.167
Local Time: 1:05 AM EDT ( 5:05 GMT) Lon: -76.9
Time Zone: US/Eastern Elev: 954 ft

Show me the last for .
Show Decoded

2018-04-24 23:53 METAR KELM 250353Z AUTO VRB04KT 10SM -RA FEW036 SCT046 OVC060 12/08 A3008 RMK
                 AO2 SLP185 P0001 T01170083 =
2018-04-24 22:53 METAR KELM 250253Z 16009KT 9SM -RA BKN047 OVC060 13/07 A3010 RMK AO2 RAB16
                 SLP193 P0000 60000 T01280067 53004 =
2018-04-24 21:53 METAR KELM 250153Z 17012G18KT 10SM OVC065 16/03 A3010 RMK AO2 SLP191 T01560033 =
2018-04-24 20:53 METAR KELM 250053Z 16005KT 10SM OVC090 16/04 A3010 RMK AO2 SLP190 T01560039 =
2018-04-24 19:53 METAR KELM 242353Z 17010KT 10SM OVC110 17/03 A3009 RMK AO2 SLP190 T01670028
                 10200 20167 56005 =
2018-04-24 18:53 METAR KELM 242253Z 17009G17KT 10SM OVC110 17/03 A3009 RMK AO2 SLP191 T01720028 =
2018-04-24 17:53 METAR KELM 242153Z 20011G18KT 10SM FEW110 18/03 A3010 RMK AO2 WSHFT 2046 SLP193
                 T01830033 =
2018-04-24 17:06 METAR KELM 242106Z 21011KT 10SM CLR 19/03 A3010 RMK AO2 WSHFT 2046 T01890028 =
2018-04-24 16:53 METAR KELM 242053Z 22013KT 10SM FEW070 19/03 A3011 RMK AO2 SLP195 T01890028
                 58026 =
2018-04-24 15:53 METAR KELM 241953Z 21010KT 10SM CLR 19/03 A3013 RMK AO2 SLP203 T01890028 =
2018-04-24 14:53 METAR KELM 241853Z 16010G16KT 10SM CLR 19/04 A3016 RMK AO2 SLP213 T01890039 =
2018-04-24 13:53 METAR KELM 241753Z 19008G17KT 10SM CLR 18/03 A3019 RMK AO2 SLP221 T01830028
                 10194 20111 56023 =
2018-04-24 12:53 METAR KELM 241653Z 22016G20KT 10SM CLR 19/04 A3020 RMK AO2 SLP224 T01940044 =
2018-04-24 11:53 METAR KELM 241553Z VRB06KT 10SM CLR 19/03 A3022 RMK AO2 SLP232 T01890033 =
2018-04-24 10:53 METAR KELM 241453Z 21015KT 10SM CLR 17/02 A3026 RMK AO2 SLP243 T01720022 57015 =
2018-04-24 09:53 METAR KELM 241353Z 19013G22KT 10SM CLR 16/00 A3027 RMK AO2 SLP248 T01610000 =
2018-04-24 08:53 METAR KELM 241253Z 22009KT 10SM CLR 14/01 A3029 RMK AO2 SLP256 T01390006 =
2018-04-24 07:53 METAR KELM 241153Z 22006KT 10SM CLR 12/00 A3030 RMK AO2 SLP260 T01170000 10128
                 20044 51007 =
2018-04-24 06:53 METAR KELM 241053Z 00000KT 10SM CLR 04/01 A3030 RMK AO2 SLP261 T00440011 =
2018-04-24 05:53 METAR KELM 240953Z 00000KT 10SM CLR 08/02 A3029 RMK AO2 SLP255 T00830022 =
2018-04-24 04:53 METAR KELM 240853Z AUTO 17005KT 10SM CLR 10/02 A3028 RMK AO2 SLP252 T01000022
                 58004 =
2018-04-24 03:53 METAR KELM 240753Z AUTO 00000KT 10SM CLR 12/02 A3029 RMK AO2 SLP254 T01170022 =
2018-04-24 02:53 METAR KELM 240653Z AUTO 25005KT 10SM CLR 11/01 A3028 RMK AO2 SLP254 T01110011 =
2018-04-24 01:53 METAR KELM 240553Z AUTO 22006KT 10SM CLR 12/01 A3029 RMK AO2 SLP255 T01220011
                 10183 20122 58002 =

Support USWX by starting your Amazon purchase here.